Flight Track Log - Related Links

Times and Time Zones

All times are in EDT time to prevent confusion due to time zone crossing. See the N675MC flight status page for this flight to view local times or setup timezone preferences in your user account.

Time Position Orientation Groundspeed Altitude Reporting Facility
EDT Latitude Longitude Course Direction KTS MPH feet Rate Location/Type
Wed 07:10:57 AM 33.4108 -82.1847 245° Southwest 262 302 6,800  Level Atlanta Center
Wed 07:11:00 AM 33.4160 -82.3589 239° Southwest  Level Estimated
Wed 07:11:57 AM 33.4017 -82.2769 263° West 269 310 9,800  Level Atlanta Center
Wed 07:12:00 AM 33.4274 -82.4576 242° Southwest  Level Estimated
Wed 07:12:57 AM 33.3825 -82.3994 259° West 305 351 11,000  Level Atlanta Center
Wed 07:13:00 AM 33.5028 -82.4996 335° Northwest  Level FlightAware Approximate
Wed 07:13:57 AM 33.3694 -82.5239 263° West 360 414 13,300  Level Atlanta Center
Wed 07:14:00 AM 33.5202 -82.5508 245° Southwest  Level FlightAware Approximate
Wed 07:14:57 AM 33.3586 -82.6511 264° West 391 450 15,300  Level Atlanta Center
Wed 07:15:00 AM 33.4854 -82.6414 245° Southwest  Level FlightAware Approximate
Wed 07:15:57 AM 33.3453 -82.7881 263° West 404 465 17,300  Level Atlanta Center
Wed 07:16:57 AM 33.3361 -82.9225 265° West 411 473 19,000 1,750 Climbing Atlanta Center
Wed 07:17:57 AM 33.3206 -83.0594 262° West 417 480 20,800 1,200 Climbing Atlanta Center
Wed 07:18:57 AM 33.3197 -83.2036 270° West 425 489 21,400 -350 Climbing Atlanta Center
Wed 07:19:57 AM 33.3206 -83.3353 270° West 436 502 20,100 -1,500 Descending Atlanta Center
Wed 07:20:57 AM 33.3253 -83.4769 272° West 436 502 18,400 -1,950 Descending Atlanta Center
Wed 07:21:57 AM 33.3300 -83.6161 272° West 436 502 16,200 -2,100 Descending Atlanta Center
Wed 07:22:57 AM 33.3472 -83.7478 279° West 416 479 14,200 -1,600 Descending Atlanta Center
Wed 07:23:57 AM 33.3725 -83.8772 283° West 405 466 13,000 -1,100 Descending Atlanta Center
Wed 07:24:57 AM 33.4122 -84.0089 290° West 396 456 12,000 -500 Descending Atlanta Center
Wed 07:25:57 AM 33.4644 -84.1186 300° West 381 438 12,000  Level Atlanta Center
Wed 07:26:48 AM 33.5000 -84.2167 294° West 378 435 12,000 51 Level Atlanta TRACON
Wed 07:27:54 AM 33.5500 -84.3167 301° West 295 339 12,100 -857 Climbing Atlanta TRACON
Wed 07:28:54 AM 33.5500 -84.4000 270° West 279 321 10,200 -2,526 Descending Atlanta TRACON
Wed 07:29:48 AM 33.5333 -84.4833 257° West 272 313 7,300 -2,895 Descending Atlanta TRACON
Wed 07:30:48 AM 33.5333 -84.5667 270° West 252 290 4,700 -2,100 Descending Atlanta TRACON
Wed 07:31:48 AM 33.6000 -84.6000 337° Northwest 258 297 3,100 -1,050 Descending Atlanta TRACON
Wed 07:32:48 AM 33.6333 -84.5500 51° Northeast 207 238 2,600 -600 Descending Atlanta TRACON
Wed 07:33:48 AM 33.6333 -84.5000 90° East 127 146 1,900 -650 Descending Atlanta TRACON
Wed 07:34:48 AM 33.6333 -84.4667 90° East 131 151 1,300 -600 Descending Atlanta TRACON

Login

Don't have an account? Register now (free) for customized features, flight alerts, and more!